sensor_id;sensor_type;location;lat;lon;timestamp;temperature;humidity
44182;DHT22;30436;48.888;9.202;2022-10-17T00:01:40;17.80;99.90
44182;DHT22;30436;48.888;9.202;2022-10-17T00:04:06;17.60;99.90
44182;DHT22;30436;48.888;9.202;2022-10-17T00:06:31;17.60;99.90
44182;DHT22;30436;48.888;9.202;2022-10-17T00:08:57;17.60;99.90
44182;DHT22;30436;48.888;9.202;2022-10-17T00:11:23;17.60;99.90
44182;DHT22;30436;48.888;9.202;2022-10-17T00:13:50;17.60;99.90
44182;DHT22;30436;48.888;9.202;2022-10-17T00:16:24;17.50;99.90
44182;DHT22;30436;48.888;9.202;2022-10-17T00:18:50;17.30;99.90
44182;DHT22;30436;48.888;9.202;2022-10-17T00:21:17;17.30;99.90
44182;DHT22;30436;48.888;9.202;2022-10-17T00:23:43;17.30;99.90
44182;DHT22;30436;48.888;9.202;2022-10-17T00:26:09;17.30;99.90
44182;DHT22;30436;48.888;9.202;2022-10-17T00:28:35;17.30;99.90
44182;DHT22;30436;48.888;9.202;2022-10-17T00:31:03;17.30;99.90
44182;DHT22;30436;48.888;9.202;2022-10-17T00:33:29;17.40;99.90
44182;DHT22;30436;48.888;9.202;2022-10-17T00:36:22;17.40;99.90
44182;DHT22;30436;48.888;9.202;2022-10-17T00:38:54;17.40;99.90
44182;DHT22;30436;48.888;9.202;2022-10-17T00:41:23;17.30;99.90
44182;DHT22;30436;48.888;9.202;2022-10-17T00:44:53;17.30;99.90
44182;DHT22;30436;48.888;9.202;2022-10-17T00:46:51;17.30;99.90
44182;DHT22;30436;48.888;9.202;2022-10-17T00:49:18;17.20;99.90
44182;DHT22;30436;48.888;9.202;2022-10-17T00:51:53;17.10;99.90
44182;DHT22;30436;48.888;9.202;2022-10-17T00:54:23;17.20;99.90
44182;DHT22;30436;48.888;9.202;2022-10-17T00:56:51;17.20;99.90
44182;DHT22;30436;48.888;9.202;2022-10-17T00:59:19;17.20;99.90
44182;DHT22;30436;48.888;9.202;2022-10-17T01:02:08;17.20;99.90
44182;DHT22;30436;48.888;9.202;2022-10-17T01:04:36;17.20;99.90
44182;DHT22;30436;48.888;9.202;2022-10-17T01:07:02;17.10;99.90
44182;DHT22;30436;48.888;9.202;2022-10-17T01:09:27;17.10;99.90
44182;DHT22;30436;48.888;9.202;2022-10-17T01:17:15;17.10;99.90
44182;DHT22;30436;48.888;9.202;2022-10-17T01:25:38;16.90;99.90
44182;DHT22;30436;48.888;9.202;2022-10-17T01:31:12;16.80;99.90
44182;DHT22;30436;48.888;9.202;2022-10-17T01:34:11;16.90;99.90
44182;DHT22;30436;48.888;9.202;2022-10-17T01:42:23;16.80;99.90
44182;DHT22;30436;48.888;9.202;2022-10-17T01:45:05;16.80;99.90
44182;DHT22;30436;48.888;9.202;2022-10-17T01:47:34;16.90;99.90
44182;DHT22;30436;48.888;9.202;2022-10-17T01:50:17;16.90;99.90
44182;DHT22;30436;48.888;9.202;2022-10-17T01:52:53;16.90;99.90
44182;DHT22;30436;48.888;9.202;2022-10-17T01:55:29;16.80;99.90
44182;DHT22;30436;48.888;9.202;2022-10-17T01:58:27;16.70;99.90
44182;DHT22;30436;48.888;9.202;2022-10-17T02:00:58;16.80;99.90
44182;DHT22;30436;48.888;9.202;2022-10-17T02:03:30;16.80;99.90
44182;DHT22;30436;48.888;9.202;2022-10-17T02:05:56;16.80;99.90
44182;DHT22;30436;48.888;9.202;2022-10-17T02:08:28;16.80;99.90
44182;DHT22;30436;48.888;9.202;2022-10-17T02:11:00;16.80;99.90
44182;DHT22;30436;48.888;9.202;2022-10-17T02:16:37;16.70;99.90
44182;DHT22;30436;48.888;9.202;2022-10-17T02:24:49;16.60;99.90
44182;DHT22;30436;48.888;9.202;2022-10-17T02:30:14;16.40;99.90
44182;DHT22;30436;48.888;9.202;2022-10-17T02:32:53;16.40;99.90
44182;DHT22;30436;48.888;9.202;2022-10-17T02:35:21;16.20;99.90
44182;DHT22;30436;48.888;9.202;2022-10-17T02:37:50;16.20;99.90
44182;DHT22;30436;48.888;9.202;2022-10-17T02:40:17;16.30;99.90
44182;DHT22;30436;48.888;9.202;2022-10-17T02:42:45;16.10;99.90
44182;DHT22;30436;48.888;9.202;2022-10-17T02:45:12;16.10;99.90
44182;DHT22;30436;48.888;9.202;2022-10-17T02:47:42;16.10;99.90
44182;DHT22;30436;48.888;9.202;2022-10-17T02:50:10;16.00;99.90
44182;DHT22;30436;48.888;9.202;2022-10-17T02:52:51;16.00;99.90
44182;DHT22;30436;48.888;9.202;2022-10-17T02:55:29;16.00;99.90
44182;DHT22;30436;48.888;9.202;2022-10-17T02:57:59;16.00;99.90
44182;DHT22;30436;48.888;9.202;2022-10-17T03:00:28;16.00;99.90
44182;DHT22;30436;48.888;9.202;2022-10-17T03:02:55;16.00;99.90
44182;DHT22;30436;48.888;9.202;2022-10-17T03:05:21;16.00;99.90
44182;DHT22;30436;48.888;9.202;2022-10-17T03:07:47;15.90;99.90
44182;DHT22;30436;48.888;9.202;2022-10-17T03:10:13;16.00;99.90
44182;DHT22;30436;48.888;9.202;2022-10-17T03:12:39;16.10;99.90
44182;DHT22;30436;48.888;9.202;2022-10-17T03:15:06;16.20;99.90
44182;DHT22;30436;48.888;9.202;2022-10-17T03:17:33;16.00;99.90
44182;DHT22;30436;48.888;9.202;2022-10-17T03:19:59;16.00;99.90
44182;DHT22;30436;48.888;9.202;2022-10-17T03:22:25;15.90;99.90
44182;DHT22;30436;48.888;9.202;2022-10-17T03:24:51;15.70;99.90
44182;DHT22;30436;48.888;9.202;2022-10-17T03:27:16;15.70;99.90
44182;DHT22;30436;48.888;9.202;2022-10-17T03:29:43;15.70;99.90
44182;DHT22;30436;48.888;9.202;2022-10-17T03:32:10;15.80;99.90
44182;DHT22;30436;48.888;9.202;2022-10-17T03:34:36;15.70;99.90
44182;DHT22;30436;48.888;9.202;2022-10-17T03:37:02;15.60;99.90
44182;DHT22;30436;48.888;9.202;2022-10-17T03:39:30;15.60;99.90
44182;DHT22;30436;48.888;9.202;2022-10-17T03:41:55;15.70;99.90
44182;DHT22;30436;48.888;9.202;2022-10-17T03:44:21;15.60;99.90
44182;DHT22;30436;48.888;9.202;2022-10-17T03:46:47;15.60;99.90
44182;DHT22;30436;48.888;9.202;2022-10-17T03:49:14;15.50;99.90
44182;DHT22;30436;48.888;9.202;2022-10-17T03:51:40;15.50;99.90
44182;DHT22;30436;48.888;9.202;2022-10-17T03:54:10;15.50;99.90
44182;DHT22;30436;48.888;9.202;2022-10-17T03:56:36;15.50;99.90
44182;DHT22;30436;48.888;9.202;2022-10-17T03:59:04;15.50;99.90
44182;DHT22;30436;48.888;9.202;2022-10-17T04:01:33;15.20;99.90
44182;DHT22;30436;48.888;9.202;2022-10-17T04:03:59;15.30;99.90
44182;DHT22;30436;48.888;9.202;2022-10-17T04:06:28;15.30;99.90
44182;DHT22;30436;48.888;9.202;2022-10-17T04:08:54;15.30;99.90
44182;DHT22;30436;48.888;9.202;2022-10-17T04:11:24;15.30;99.90
44182;DHT22;30436;48.888;9.202;2022-10-17T04:13:53;15.30;99.90
44182;DHT22;30436;48.888;9.202;2022-10-17T04:16:19;15.30;99.90
44182;DHT22;30436;48.888;9.202;2022-10-17T04:19:11;15.40;99.90
44182;DHT22;30436;48.888;9.202;2022-10-17T04:21:40;15.30;99.90
44182;DHT22;30436;48.888;9.202;2022-10-17T04:24:09;15.30;99.90
44182;DHT22;30436;48.888;9.202;2022-10-17T04:26:42;15.30;99.90
44182;DHT22;30436;48.888;9.202;2022-10-17T04:29:10;15.20;99.90
44182;DHT22;30436;48.888;9.202;2022-10-17T04:31:37;15.10;99.90
44182;DHT22;30436;48.888;9.202;2022-10-17T04:34:10;15.20;99.90
44182;DHT22;30436;48.888;9.202;2022-10-17T04:36:39;15.20;99.90
44182;DHT22;30436;48.888;9.202;2022-10-17T04:39:05;15.30;99.90
44182;DHT22;30436;48.888;9.202;2022-10-17T04:41:31;15.30;99.90
44182;DHT22;30436;48.888;9.202;2022-10-17T04:43:57;15.30;99.90
44182;DHT22;30436;48.888;9.202;2022-10-17T04:46:23;15.20;99.90
44182;DHT22;30436;48.888;9.202;2022-10-17T04:48:49;15.20;99.90
44182;DHT22;30436;48.888;9.202;2022-10-17T04:51:17;15.10;99.90
44182;DHT22;30436;48.888;9.202;2022-10-17T04:54:05;15.20;99.90
44182;DHT22;30436;48.888;9.202;2022-10-17T04:56:32;15.40;99.90
44182;DHT22;30436;48.888;9.202;2022-10-17T04:58:58;15.30;99.90
44182;DHT22;30436;48.888;9.202;2022-10-17T05:01:25;15.30;99.90
44182;DHT22;30436;48.888;9.202;2022-10-17T05:03:52;15.20;99.90
44182;DHT22;30436;48.888;9.202;2022-10-17T05:06:21;15.20;99.90
44182;DHT22;30436;48.888;9.202;2022-10-17T05:09:02;15.10;99.90
44182;DHT22;30436;48.888;9.202;2022-10-17T05:11:29;15.10;99.90
44182;DHT22;30436;48.888;9.202;2022-10-17T05:13:57;15.10;99.90
44182;DHT22;30436;48.888;9.202;2022-10-17T05:16:24;15.10;99.90
44182;DHT22;30436;48.888;9.202;2022-10-17T05:18:52;15.20;99.90
44182;DHT22;30436;48.888;9.202;2022-10-17T05:21:18;15.10;99.90
44182;DHT22;30436;48.888;9.202;2022-10-17T05:23:44;15.10;99.90
44182;DHT22;30436;48.888;9.202;2022-10-17T05:26:10;15.00;99.90
44182;DHT22;30436;48.888;9.202;2022-10-17T05:28:36;15.00;99.90
44182;DHT22;30436;48.888;9.202;2022-10-17T05:31:04;15.00;99.90
44182;DHT22;30436;48.888;9.202;2022-10-17T05:33:31;15.00;99.90
44182;DHT22;30436;48.888;9.202;2022-10-17T05:35:57;15.00;99.90
44182;DHT22;30436;48.888;9.202;2022-10-17T05:38:23;15.00;99.90
44182;DHT22;30436;48.888;9.202;2022-10-17T05:40:49;15.10;99.90
44182;DHT22;30436;48.888;9.202;2022-10-17T05:43:14;15.10;99.90
44182;DHT22;30436;48.888;9.202;2022-10-17T05:45:41;15.10;99.90
44182;DHT22;30436;48.888;9.202;2022-10-17T05:48:14;15.10;99.90
44182;DHT22;30436;48.888;9.202;2022-10-17T05:50:40;15.10;99.90
44182;DHT22;30436;48.888;9.202;2022-10-17T05:53:11;15.10;99.90
44182;DHT22;30436;48.888;9.202;2022-10-17T05:55:42;15.20;99.90
44182;DHT22;30436;48.888;9.202;2022-10-17T05:58:08;15.20;99.90
44182;DHT22;30436;48.888;9.202;2022-10-17T06:02:58;15.10;99.90
44182;DHT22;30436;48.888;9.202;2022-10-17T06:05:24;15.10;99.90
44182;DHT22;30436;48.888;9.202;2022-10-17T06:07:50;15.00;99.90
44182;DHT22;30436;48.888;9.202;2022-10-17T06:10:18;14.90;99.90
44182;DHT22;30436;48.888;9.202;2022-10-17T06:12:44;14.90;99.90
44182;DHT22;30436;48.888;9.202;2022-10-17T06:15:10;15.00;99.90
44182;DHT22;30436;48.888;9.202;2022-10-17T06:17:38;15.00;99.90
44182;DHT22;30436;48.888;9.202;2022-10-17T06:20:04;15.00;99.90
44182;DHT22;30436;48.888;9.202;2022-10-17T06:22:31;14.90;99.90
44182;DHT22;30436;48.888;9.202;2022-10-17T06:24:57;15.00;99.90
44182;DHT22;30436;48.888;9.202;2022-10-17T06:27:22;15.00;99.90
44182;DHT22;30436;48.888;9.202;2022-10-17T06:29:48;15.10;99.90
44182;DHT22;30436;48.888;9.202;2022-10-17T06:32:16;15.10;99.90
44182;DHT22;30436;48.888;9.202;2022-10-17T06:34:45;15.10;99.90
44182;DHT22;30436;48.888;9.202;2022-10-17T06:37:10;15.00;99.90
44182;DHT22;30436;48.888;9.202;2022-10-17T06:39:38;14.80;99.90
44182;DHT22;30436;48.888;9.202;2022-10-17T06:42:12;14.80;99.90
44182;DHT22;30436;48.888;9.202;2022-10-17T06:44:45;14.80;99.90
44182;DHT22;30436;48.888;9.202;2022-10-17T06:47:29;14.80;99.90
44182;DHT22;30436;48.888;9.202;2022-10-17T06:49:58;14.90;99.90
44182;DHT22;30436;48.888;9.202;2022-10-17T06:52:29;14.90;99.90
44182;DHT22;30436;48.888;9.202;2022-10-17T06:55:27;14.90;99.90
44182;DHT22;30436;48.888;9.202;2022-10-17T06:58:08;14.90;99.90
44182;DHT22;30436;48.888;9.202;2022-10-17T07:02:46;15.10;99.90
44182;DHT22;30436;48.888;9.202;2022-10-17T07:05:11;15.10;99.90
44182;DHT22;30436;48.888;9.202;2022-10-17T07:07:37;15.30;99.90
44182;DHT22;30436;48.888;9.202;2022-10-17T07:10:04;15.10;99.90
44182;DHT22;30436;48.888;9.202;2022-10-17T07:12:34;15.20;99.90
44182;DHT22;30436;48.888;9.202;2022-10-17T07:15:00;15.40;99.90
44182;DHT22;30436;48.888;9.202;2022-10-17T07:17:25;15.60;99.90
44182;DHT22;30436;48.888;9.202;2022-10-17T07:19:51;15.60;99.90
44182;DHT22;30436;48.888;9.202;2022-10-17T07:22:17;15.70;99.90
44182;DHT22;30436;48.888;9.202;2022-10-17T07:24:46;15.80;99.90
44182;DHT22;30436;48.888;9.202;2022-10-17T07:27:20;15.90;99.90
44182;DHT22;30436;48.888;9.202;2022-10-17T07:29:46;16.00;99.90
44182;DHT22;30436;48.888;9.202;2022-10-17T07:32:30;16.00;99.90
44182;DHT22;30436;48.888;9.202;2022-10-17T07:34:56;16.10;99.90
44182;DHT22;30436;48.888;9.202;2022-10-17T07:37:21;16.30;99.90
44182;DHT22;30436;48.888;9.202;2022-10-17T07:39:52;16.40;99.90
44182;DHT22;30436;48.888;9.202;2022-10-17T07:42:18;16.50;99.90
44182;DHT22;30436;48.888;9.202;2022-10-17T07:44:44;16.60;99.90
44182;DHT22;30436;48.888;9.202;2022-10-17T07:47:12;16.80;99.90
44182;DHT22;30436;48.888;9.202;2022-10-17T07:49:38;16.80;99.90
44182;DHT22;30436;48.888;9.202;2022-10-17T07:52:10;16.90;99.90
44182;DHT22;30436;48.888;9.202;2022-10-17T07:54:36;17.10;99.90
44182;DHT22;30436;48.888;9.202;2022-10-17T07:57:02;17.30;99.90
44182;DHT22;30436;48.888;9.202;2022-10-17T07:59:27;17.30;99.90
44182;DHT22;30436;48.888;9.202;2022-10-17T08:01:56;17.40;99.90
44182;DHT22;30436;48.888;9.202;2022-10-17T08:04:22;17.40;99.90
44182;DHT22;30436;48.888;9.202;2022-10-17T08:06:48;17.50;99.90
44182;DHT22;30436;48.888;9.202;2022-10-17T08:09:14;17.30;99.90
44182;DHT22;30436;48.888;9.202;2022-10-17T08:11:40;17.40;99.90
44182;DHT22;30436;48.888;9.202;2022-10-17T08:14:11;17.50;99.90
44182;DHT22;30436;48.888;9.202;2022-10-17T08:16:38;17.70;99.90
44182;DHT22;30436;48.888;9.202;2022-10-17T08:19:04;17.90;99.90
44182;DHT22;30436;48.888;9.202;2022-10-17T08:21:30;17.90;99.90
44182;DHT22;30436;48.888;9.202;2022-10-17T08:23:55;18.10;99.90
44182;DHT22;30436;48.888;9.202;2022-10-17T08:26:21;18.10;99.90
44182;DHT22;30436;48.888;9.202;2022-10-17T08:28:47;18.20;99.90
44182;DHT22;30436;48.888;9.202;2022-10-17T08:31:16;18.20;99.90
44182;DHT22;30436;48.888;9.202;2022-10-17T08:33:46;18.20;99.90
44182;DHT22;30436;48.888;9.202;2022-10-17T08:36:13;18.30;99.90
44182;DHT22;30436;48.888;9.202;2022-10-17T08:38:39;18.30;99.90
44182;DHT22;30436;48.888;9.202;2022-10-17T08:41:43;18.30;99.90
44182;DHT22;30436;48.888;9.202;2022-10-17T08:46:41;18.70;99.90
44182;DHT22;30436;48.888;9.202;2022-10-17T08:49:18;18.80;99.90
44182;DHT22;30436;48.888;9.202;2022-10-17T08:52:09;19.00;99.90
44182;DHT22;30436;48.888;9.202;2022-10-17T08:54:44;19.10;99.90
44182;DHT22;30436;48.888;9.202;2022-10-17T08:57:12;19.10;99.90
44182;DHT22;30436;48.888;9.202;2022-10-17T08:59:40;19.30;99.90
44182;DHT22;30436;48.888;9.202;2022-10-17T09:10:17;19.90;99.90
44182;DHT22;30436;48.888;9.202;2022-10-17T09:12:49;20.10;99.90
44182;DHT22;30436;48.888;9.202;2022-10-17T09:15:48;20.10;99.90
44182;DHT22;30436;48.888;9.202;2022-10-17T09:18:24;20.10;99.90
44182;DHT22;30436;48.888;9.202;2022-10-17T09:20:54;20.10;99.90
44182;DHT22;30436;48.888;9.202;2022-10-17T09:23:41;20.30;99.90
44182;DHT22;30436;48.888;9.202;2022-10-17T09:26:09;20.30;99.90
44182;DHT22;30436;48.888;9.202;2022-10-17T09:28:38;20.30;99.90
44182;DHT22;30436;48.888;9.202;2022-10-17T09:31:21;20.30;99.90
44182;DHT22;30436;48.888;9.202;2022-10-17T09:33:49;20.50;99.90
44182;DHT22;30436;48.888;9.202;2022-10-17T09:36:37;20.60;99.90
44182;DHT22;30436;48.888;9.202;2022-10-17T09:39:08;20.60;99.90
44182;DHT22;30436;48.888;9.202;2022-10-17T09:41:55;20.60;99.90
44182;DHT22;30436;48.888;9.202;2022-10-17T09:44:34;20.70;99.90
44182;DHT22;30436;48.888;9.202;2022-10-17T09:47:22;20.90;99.90
44182;DHT22;30436;48.888;9.202;2022-10-17T09:49:49;21.00;99.90
44182;DHT22;30436;48.888;9.202;2022-10-17T09:52:24;21.20;99.90
44182;DHT22;30436;48.888;9.202;2022-10-17T09:58:03;21.40;99.90
44182;DHT22;30436;48.888;9.202;2022-10-17T10:00:31;21.60;99.90
44182;DHT22;30436;48.888;9.202;2022-10-17T10:03:22;21.80;99.90
44182;DHT22;30436;48.888;9.202;2022-10-17T10:08:31;22.20;99.90
44182;DHT22;30436;48.888;9.202;2022-10-17T10:11:02;22.30;99.90
44182;DHT22;30436;48.888;9.202;2022-10-17T10:13:29;22.70;99.90
44182;DHT22;30436;48.888;9.202;2022-10-17T10:16:17;22.70;99.90
44182;DHT22;30436;48.888;9.202;2022-10-17T10:18:44;22.80;99.90
44182;DHT22;30436;48.888;9.202;2022-10-17T10:21:12;22.90;99.90
44182;DHT22;30436;48.888;9.202;2022-10-17T10:23:43;23.00;99.90
44182;DHT22;30436;48.888;9.202;2022-10-17T10:26:37;23.10;99.90
44182;DHT22;30436;48.888;9.202;2022-10-17T10:29:16;23.10;99.90
44182;DHT22;30436;48.888;9.202;2022-10-17T10:31:43;23.20;99.90
44182;DHT22;30436;48.888;9.202;2022-10-17T10:34:21;23.20;99.90
44182;DHT22;30436;48.888;9.202;2022-10-17T10:44:52;24.30;99.90
44182;DHT22;30436;48.888;9.202;2022-10-17T10:47:29;24.30;99.90
44182;DHT22;30436;48.888;9.202;2022-10-17T10:56:04;26.00;99.90
44182;DHT22;30436;48.888;9.202;2022-10-17T11:01:44;26.20;99.90
44182;DHT22;30436;48.888;9.202;2022-10-17T11:12:24;27.40;98.70
44182;DHT22;30436;48.888;9.202;2022-10-17T11:15:00;27.50;98.30
44182;DHT22;30436;48.888;9.202;2022-10-17T11:17:38;28.30;95.10
44182;DHT22;30436;48.888;9.202;2022-10-17T11:20:10;28.40;94.60
44182;DHT22;30436;48.888;9.202;2022-10-17T11:22:47;28.50;93.60
44182;DHT22;30436;48.888;9.202;2022-10-17T11:25:37;29.00;91.50
44182;DHT22;30436;48.888;9.202;2022-10-17T11:28:12;29.30;90.30
44182;DHT22;30436;48.888;9.202;2022-10-17T11:30:47;29.90;83.20
44182;DHT22;30436;48.888;9.202;2022-10-17T11:33:19;30.50;83.40
44182;DHT22;30436;48.888;9.202;2022-10-17T11:35:50;30.50;79.90
44182;DHT22;30436;48.888;9.202;2022-10-17T11:41:04;31.00;76.60
44182;DHT22;30436;48.888;9.202;2022-10-17T11:44:10;31.90;74.20
44182;DHT22;30436;48.888;9.202;2022-10-17T11:46:39;32.60;70.00
44182;DHT22;30436;48.888;9.202;2022-10-17T11:49:15;33.70;64.40
44182;DHT22;30436;48.888;9.202;2022-10-17T11:51:51;34.10;62.80
44182;DHT22;30436;48.888;9.202;2022-10-17T11:54:40;35.30;59.30
44182;DHT22;30436;48.888;9.202;2022-10-17T12:00:04;37.50;55.30
44182;DHT22;30436;48.888;9.202;2022-10-17T12:07:55;40.60;49.20
44182;DHT22;30436;48.888;9.202;2022-10-17T12:10:43;42.00;46.50
44182;DHT22;30436;48.888;9.202;2022-10-17T12:21:56;44.10;42.40
44182;DHT22;30436;48.888;9.202;2022-10-17T12:24:40;44.00;41.70
44182;DHT22;30436;48.888;9.202;2022-10-17T12:35:37;44.90;40.40
44182;DHT22;30436;48.888;9.202;2022-10-17T12:40:49;45.50;39.20
44182;DHT22;30436;48.888;9.202;2022-10-17T12:45:53;44.80;39.40
44182;DHT22;30436;48.888;9.202;2022-10-17T12:51:19;45.40;39.30
44182;DHT22;30436;48.888;9.202;2022-10-17T12:56:38;44.70;39.80
44182;DHT22;30436;48.888;9.202;2022-10-17T13:01:45;43.40;40.90
44182;DHT22;30436;48.888;9.202;2022-10-17T13:04:12;42.80;41.10
44182;DHT22;30436;48.888;9.202;2022-10-17T13:06:53;42.80;41.10
44182;DHT22;30436;48.888;9.202;2022-10-17T13:09:37;42.80;41.20
44182;DHT22;30436;48.888;9.202;2022-10-17T13:12:20;43.60;40.00
44182;DHT22;30436;48.888;9.202;2022-10-17T13:14:50;43.50;40.30
44182;DHT22;30436;48.888;9.202;2022-10-17T13:17:25;42.70;41.90
44182;DHT22;30436;48.888;9.202;2022-10-17T13:19:52;42.40;41.20
44182;DHT22;30436;48.888;9.202;2022-10-17T13:22:27;42.30;41.70
44182;DHT22;30436;48.888;9.202;2022-10-17T13:25:14;42.30;41.30
44182;DHT22;30436;48.888;9.202;2022-10-17T13:27:39;42.20;42.30
44182;DHT22;30436;48.888;9.202;2022-10-17T13:30:27;42.40;41.90
44182;DHT22;30436;48.888;9.202;2022-10-17T13:32:53;40.90;42.30
44182;DHT22;30436;48.888;9.202;2022-10-17T13:35:34;40.20;43.00
44182;DHT22;30436;48.888;9.202;2022-10-17T13:38:01;39.40;43.80
44182;DHT22;30436;48.888;9.202;2022-10-17T13:40:30;38.70;45.40
44182;DHT22;30436;48.888;9.202;2022-10-17T13:42:57;38.00;46.50
44182;DHT22;30436;48.888;9.202;2022-10-17T13:45:30;36.20;47.50
44182;DHT22;30436;48.888;9.202;2022-10-17T13:48:01;34.60;49.70
44182;DHT22;30436;48.888;9.202;2022-10-17T13:56:18;32.00;54.30
44182;DHT22;30436;48.888;9.202;2022-10-17T13:58:47;31.50;55.10
44182;DHT22;30436;48.888;9.202;2022-10-17T14:01:13;30.90;56.00
44182;DHT22;30436;48.888;9.202;2022-10-17T14:03:41;30.50;58.60
44182;DHT22;30436;48.888;9.202;2022-10-17T14:06:18;30.30;58.50
44182;DHT22;30436;48.888;9.202;2022-10-17T14:11:40;29.70;61.00
44182;DHT22;30436;48.888;9.202;2022-10-17T14:14:22;29.20;60.50
44182;DHT22;30436;48.888;9.202;2022-10-17T14:16:48;28.80;63.20
44182;DHT22;30436;48.888;9.202;2022-10-17T14:21:52;28.60;64.10
44182;DHT22;30436;48.888;9.202;2022-10-17T14:24:27;28.50;64.00
44182;DHT22;30436;48.888;9.202;2022-10-17T14:26:55;28.20;64.20
44182;DHT22;30436;48.888;9.202;2022-10-17T14:29:27;28.00;66.10
44182;DHT22;30436;48.888;9.202;2022-10-17T14:32:01;27.90;65.00
44182;DHT22;30436;48.888;9.202;2022-10-17T14:34:34;27.60;64.60
44182;DHT22;30436;48.888;9.202;2022-10-17T14:37:01;27.60;66.10
44182;DHT22;30436;48.888;9.202;2022-10-17T14:39:27;27.60;66.10
44182;DHT22;30436;48.888;9.202;2022-10-17T14:41:54;27.50;64.30
44182;DHT22;30436;48.888;9.202;2022-10-17T14:44:32;27.40;67.60
44182;DHT22;30436;48.888;9.202;2022-10-17T14:47:00;27.40;65.60
44182;DHT22;30436;48.888;9.202;2022-10-17T14:49:34;27.30;68.50
44182;DHT22;30436;48.888;9.202;2022-10-17T14:54:45;27.20;68.40
44182;DHT22;30436;48.888;9.202;2022-10-17T14:59:57;27.00;69.50
44182;DHT22;30436;48.888;9.202;2022-10-17T15:02:24;27.00;68.30
44182;DHT22;30436;48.888;9.202;2022-10-17T15:04:50;26.80;67.70
44182;DHT22;30436;48.888;9.202;2022-10-17T15:07:17;26.70;68.20
44182;DHT22;30436;48.888;9.202;2022-10-17T15:09:43;26.70;67.40
44182;DHT22;30436;48.888;9.202;2022-10-17T15:12:15;26.50;68.00
44182;DHT22;30436;48.888;9.202;2022-10-17T15:14:41;26.40;69.50
44182;DHT22;30436;48.888;9.202;2022-10-17T15:17:26;26.40;69.40
44182;DHT22;30436;48.888;9.202;2022-10-17T15:19:52;26.20;73.10
44182;DHT22;30436;48.888;9.202;2022-10-17T15:22:18;26.20;70.10
44182;DHT22;30436;48.888;9.202;2022-10-17T15:24:44;26.10;76.50
44182;DHT22;30436;48.888;9.202;2022-10-17T15:27:17;26.00;73.60
44182;DHT22;30436;48.888;9.202;2022-10-17T15:29:44;25.70;73.70
44182;DHT22;30436;48.888;9.202;2022-10-17T15:32:10;25.40;73.50
44182;DHT22;30436;48.888;9.202;2022-10-17T15:34:36;25.50;77.00
44182;DHT22;30436;48.888;9.202;2022-10-17T15:37:03;25.50;74.30
44182;DHT22;30436;48.888;9.202;2022-10-17T15:39:29;25.50;79.70
44182;DHT22;30436;48.888;9.202;2022-10-17T15:41:54;25.60;75.00
44182;DHT22;30436;48.888;9.202;2022-10-17T15:44:20;25.30;74.20
44182;DHT22;30436;48.888;9.202;2022-10-17T15:46:46;25.40;74.80
44182;DHT22;30436;48.888;9.202;2022-10-17T15:49:17;25.40;78.70
44182;DHT22;30436;48.888;9.202;2022-10-17T15:51:44;25.40;78.80
44182;DHT22;30436;48.888;9.202;2022-10-17T15:54:10;25.20;77.50
44182;DHT22;30436;48.888;9.202;2022-10-17T15:56:42;25.10;77.30
44182;DHT22;30436;48.888;9.202;2022-10-17T15:59:15;25.10;80.50
44182;DHT22;30436;48.888;9.202;2022-10-17T16:01:42;25.10;79.50
44182;DHT22;30436;48.888;9.202;2022-10-17T16:04:11;25.00;82.00
44182;DHT22;30436;48.888;9.202;2022-10-17T16:06:40;25.00;86.50
44182;DHT22;30436;48.888;9.202;2022-10-17T16:09:07;24.80;85.70
44182;DHT22;30436;48.888;9.202;2022-10-17T16:11:38;24.80;81.20
44182;DHT22;30436;48.888;9.202;2022-10-17T16:14:09;24.70;84.50
44182;DHT22;30436;48.888;9.202;2022-10-17T16:16:35;24.70;86.70
44182;DHT22;30436;48.888;9.202;2022-10-17T16:19:01;24.60;84.90
44182;DHT22;30436;48.888;9.202;2022-10-17T16:21:31;24.40;86.20
44182;DHT22;30436;48.888;9.202;2022-10-17T16:23:57;24.40;86.60
44182;DHT22;30436;48.888;9.202;2022-10-17T16:26:23;24.40;87.20
44182;DHT22;30436;48.888;9.202;2022-10-17T16:28:49;24.30;84.50
44182;DHT22;30436;48.888;9.202;2022-10-17T16:31:22;24.20;82.80
44182;DHT22;30436;48.888;9.202;2022-10-17T16:33:49;24.10;88.80
44182;DHT22;30436;48.888;9.202;2022-10-17T16:36:15;24.10;88.20
44182;DHT22;30436;48.888;9.202;2022-10-17T16:38:41;24.00;89.20
44182;DHT22;30436;48.888;9.202;2022-10-17T16:41:28;23.90;84.80
44182;DHT22;30436;48.888;9.202;2022-10-17T16:43:56;23.70;85.90
44182;DHT22;30436;48.888;9.202;2022-10-17T16:46:24;23.60;87.60
44182;DHT22;30436;48.888;9.202;2022-10-17T16:48:50;23.60;87.80
44182;DHT22;30436;48.888;9.202;2022-10-17T16:51:17;23.40;87.30
44182;DHT22;30436;48.888;9.202;2022-10-17T16:53:44;23.30;87.70
44182;DHT22;30436;48.888;9.202;2022-10-17T16:56:16;23.30;88.80
44182;DHT22;30436;48.888;9.202;2022-10-17T16:58:43;23.20;89.60
44182;DHT22;30436;48.888;9.202;2022-10-17T17:01:20;23.10;90.00
44182;DHT22;30436;48.888;9.202;2022-10-17T17:03:48;23.20;90.30
44182;DHT22;30436;48.888;9.202;2022-10-17T17:06:16;23.10;90.30
44182;DHT22;30436;48.888;9.202;2022-10-17T17:08:43;23.10;90.70
44182;DHT22;30436;48.888;9.202;2022-10-17T17:11:11;23.10;90.40
44182;DHT22;30436;48.888;9.202;2022-10-17T17:13:37;23.10;90.50
44182;DHT22;30436;48.888;9.202;2022-10-17T17:16:05;23.00;90.60
44182;DHT22;30436;48.888;9.202;2022-10-17T17:18:32;22.90;90.30
44182;DHT22;30436;48.888;9.202;2022-10-17T17:20:58;22.90;90.70
44182;DHT22;30436;48.888;9.202;2022-10-17T17:23:24;22.80;92.20
44182;DHT22;30436;48.888;9.202;2022-10-17T17:25:58;22.80;91.00
44182;DHT22;30436;48.888;9.202;2022-10-17T17:28:25;22.80;90.90
44182;DHT22;30436;48.888;9.202;2022-10-17T17:30:51;22.70;91.10
44182;DHT22;30436;48.888;9.202;2022-10-17T17:33:17;22.70;91.30
44182;DHT22;30436;48.888;9.202;2022-10-17T17:35:43;22.60;91.90
44182;DHT22;30436;48.888;9.202;2022-10-17T17:38:08;22.60;94.00
44182;DHT22;30436;48.888;9.202;2022-10-17T17:40:34;22.60;92.80
44182;DHT22;30436;48.888;9.202;2022-10-17T17:43:00;22.60;92.30
44182;DHT22;30436;48.888;9.202;2022-10-17T17:45:26;22.50;92.70
44182;DHT22;30436;48.888;9.202;2022-10-17T17:47:52;22.50;93.00
44182;DHT22;30436;48.888;9.202;2022-10-17T17:50:18;22.50;92.30
44182;DHT22;30436;48.888;9.202;2022-10-17T17:52:44;22.50;93.50
44182;DHT22;30436;48.888;9.202;2022-10-17T17:55:11;22.30;93.70
44182;DHT22;30436;48.888;9.202;2022-10-17T17:57:37;22.50;93.70
44182;DHT22;30436;48.888;9.202;2022-10-17T18:00:03;22.40;93.30
44182;DHT22;30436;48.888;9.202;2022-10-17T18:02:29;22.40;93.60
44182;DHT22;30436;48.888;9.202;2022-10-17T18:04:55;22.40;94.30
44182;DHT22;30436;48.888;9.202;2022-10-17T18:07:21;22.30;94.50